Bentley, Illinois
Current Conditions -  °F | °C
As of 9:35 PM on Saturday 24 Jan 2015 (Local Time) from KMQB Reporting Station
Clear Clear  
Wind Chill: 36°   Ceiling: Unl
Heat Index: 41°   Visibility: 10mi
Dew Point: 34°   Wind: 9mph
Humidity: 74%   Direction: 210°SSW
Pressure: 29.67"   Gusts: NA
Location:  40.4155°N, 91.0269°W
Report Text: KMQB 250335Z AUTO 21008KT 10SM CLR 05/01 A2967 RMK AO2 T00520010
Loading
Personal Weather Stations






























Interactive Weather Map New forecast layout! Learn more

10-Day Weather Forecast

Advertisements
Track Severe Weather on mobile